createdAt,value
2022-09-09T00:02:06.863Z,13.50
2022-09-09T00:04:36.740Z,13.30
2022-09-09T00:07:12.272Z,13.30
2022-09-09T00:09:50.411Z,13.40
2022-09-09T00:12:23.135Z,13.40
2022-09-09T00:14:56.333Z,13.50
2022-09-09T00:17:40.502Z,13.60
2022-09-09T00:20:15.197Z,13.70
2022-09-09T00:22:50.885Z,13.60
2022-09-09T00:25:28.349Z,13.80
2022-09-09T00:27:57.553Z,13.90
2022-09-09T00:30:27.978Z,13.90
2022-09-09T00:33:01.352Z,13.80
2022-09-09T00:35:32.270Z,13.80
2022-09-09T00:38:05.296Z,13.90
2022-09-09T00:40:36.383Z,13.90
2022-09-09T00:43:23.274Z,13.90
2022-09-09T00:46:05.041Z,13.90
2022-09-09T00:48:43.729Z,13.90
2022-09-09T00:51:17.569Z,13.90
2022-09-09T00:54:13.710Z,14.00
2022-09-09T00:56:49.444Z,14.00
2022-09-09T00:59:28.627Z,14.10
2022-09-09T01:01:57.148Z,14.00
2022-09-09T01:04:32.157Z,14.00
2022-09-09T01:07:09.992Z,13.90
2022-09-09T01:09:52.653Z,13.80
2022-09-09T01:12:32.580Z,13.80
2022-09-09T01:15:11.400Z,13.80
2022-09-09T01:17:51.020Z,13.90
2022-09-09T01:20:26.786Z,13.80
2022-09-09T01:23:18.636Z,13.80
2022-09-09T01:26:15.540Z,13.80
2022-09-09T01:28:46.241Z,13.80
2022-09-09T01:31:19.067Z,13.80
2022-09-09T01:33:47.048Z,13.80
2022-09-09T01:36:22.030Z,13.80
2022-09-09T01:38:50.150Z,13.80
2022-09-09T01:41:19.667Z,13.80
2022-09-09T01:43:48.226Z,13.80
2022-09-09T01:46:16.820Z,13.80
2022-09-09T01:48:46.242Z,13.80
2022-09-09T01:51:14.262Z,13.80
2022-09-09T01:53:45.085Z,13.80
2022-09-09T01:56:26.242Z,13.80
2022-09-09T01:59:10.679Z,13.80
2022-09-09T02:01:49.726Z,13.90
2022-09-09T02:04:30.036Z,13.90
2022-09-09T02:06:59.035Z,13.80
2022-09-09T02:09:28.548Z,13.80
2022-09-09T02:12:04.239Z,13.90
2022-09-09T02:14:37.704Z,13.90
2022-09-09T02:17:12.114Z,13.80
2022-09-09T02:19:47.068Z,13.80
2022-09-09T02:22:15.711Z,13.90
2022-09-09T02:24:43.721Z,13.90
2022-09-09T02:27:14.413Z,13.80
2022-09-09T02:29:44.317Z,13.70
2022-09-09T02:32:18.193Z,13.80
2022-09-09T02:34:49.801Z,13.80
2022-09-09T02:37:22.138Z,13.90
2022-09-09T02:39:50.387Z,13.90
2022-09-09T02:42:20.087Z,13.80
2022-09-09T02:44:48.341Z,13.80
2022-09-09T02:47:27.057Z,13.80
2022-09-09T02:50:04.657Z,13.80
2022-09-09T02:52:43.089Z,13.80
2022-09-09T02:55:19.421Z,13.90
2022-09-09T02:57:50.479Z,13.80
2022-09-09T03:00:25.636Z,13.70
2022-09-09T03:02:54.853Z,13.70
2022-09-09T03:05:23.598Z,13.70
2022-09-09T03:07:51.609Z,13.80
2022-09-09T03:10:20.197Z,13.70
2022-09-09T03:12:49.692Z,13.80
2022-09-09T03:15:18.277Z,13.70
2022-09-09T03:17:46.699Z,13.70
2022-09-09T03:20:14.663Z,13.60
2022-09-09T03:22:42.624Z,13.80
2022-09-09T03:25:11.309Z,13.90
2022-09-09T03:27:39.707Z,13.90
2022-09-09T03:30:10.193Z,13.90
2022-09-09T03:32:38.939Z,13.90
2022-09-09T03:35:07.481Z,13.80
2022-09-09T03:37:35.894Z,13.70
2022-09-09T03:40:04.906Z,13.60
2022-09-09T03:42:32.909Z,13.60
2022-09-09T03:45:00.910Z,13.60
2022-09-09T03:47:30.930Z,13.60
2022-09-09T03:49:59.279Z,13.50
2022-09-09T03:52:27.440Z,13.50
2022-09-09T03:54:58.154Z,13.40
2022-09-09T03:57:26.165Z,13.40
2022-09-09T03:59:54.193Z,13.40
2022-09-09T04:02:22.506Z,13.40
2022-09-09T04:04:52.333Z,13.50
2022-09-09T04:07:20.334Z,13.50
2022-09-09T04:09:48.469Z,13.50
2022-09-09T04:12:18.061Z,13.50
2022-09-09T04:14:46.050Z,13.40
2022-09-09T04:17:14.045Z,13.50
2022-09-09T04:19:43.520Z,13.30
2022-09-09T04:22:12.919Z,13.00
2022-09-09T04:24:44.462Z,12.80
2022-09-09T04:27:14.778Z,12.70
2022-09-09T04:29:43.051Z,12.80
2022-09-09T04:32:11.256Z,12.70
2022-09-09T04:34:39.519Z,14.70
2022-09-09T04:37:07.509Z,15.60
2022-09-09T04:39:37.248Z,16.40
2022-09-09T04:42:05.637Z,16.80
2022-09-09T04:44:33.694Z,16.90
2022-09-09T04:47:02.027Z,16.80
2022-09-09T04:49:32.014Z,16.50
2022-09-09T04:51:59.978Z,16.50
2022-09-09T04:54:29.789Z,16.30
2022-09-09T04:56:59.707Z,16.30
2022-09-09T04:59:27.686Z,16.40
2022-09-09T05:01:56.897Z,16.40
2022-09-09T05:04:24.941Z,16.70
2022-09-09T05:06:53.687Z,16.80
2022-09-09T05:09:21.662Z,16.90
2022-09-09T05:11:50.208Z,17.00
2022-09-09T05:14:19.546Z,17.10
2022-09-09T05:16:48.227Z,17.10
2022-09-09T05:19:16.506Z,16.80
2022-09-09T05:21:44.731Z,17.00
2022-09-09T05:24:13.389Z,17.40
2022-09-09T05:26:41.502Z,18.20
2022-09-09T05:29:09.612Z,18.50
2022-09-09T05:31:40.352Z,18.60
2022-09-09T05:34:08.501Z,18.60
2022-09-09T05:36:36.522Z,18.40
2022-09-09T05:39:04.865Z,17.80
2022-09-09T05:41:32.966Z,17.50
2022-09-09T05:44:02.134Z,17.40
2022-09-09T05:46:30.172Z,17.30
2022-09-09T05:48:59.592Z,17.40
2022-09-09T05:51:31.028Z,17.60
2022-09-09T05:53:59.775Z,17.50
2022-09-09T05:56:29.459Z,17.20
2022-09-09T05:58:58.064Z,17.20
2022-09-09T06:01:28.414Z,17.40
2022-09-09T06:03:57.270Z,17.50
2022-09-09T06:06:28.064Z,17.80
2022-09-09T06:08:58.387Z,18.00
2022-09-09T06:11:28.681Z,17.90
2022-09-09T06:13:56.982Z,17.90
2022-09-09T06:16:26.524Z,17.60
2022-09-09T06:18:55.989Z,17.10
2022-09-09T06:21:27.574Z,17.00
2022-09-09T06:24:00.726Z,16.60
2022-09-09T06:26:31.830Z,16.40
2022-09-09T06:29:00.767Z,16.70
2022-09-09T06:31:31.449Z,17.30
2022-09-09T06:34:01.878Z,17.80
2022-09-09T06:36:33.025Z,17.70
2022-09-09T06:39:01.800Z,18.10
2022-09-09T06:41:31.633Z,18.50
2022-09-09T06:43:59.902Z,18.80
2022-09-09T06:46:29.760Z,18.90
2022-09-09T06:48:59.809Z,19.00
2022-09-09T06:51:29.202Z,18.50
2022-09-09T06:54:00.667Z,18.00
2022-09-09T06:56:30.158Z,18.00
2022-09-09T06:59:00.294Z,17.30
2022-09-09T07:01:31.522Z,17.70
2022-09-09T07:04:01.670Z,17.40
2022-09-09T07:06:31.755Z,17.00
2022-09-09T07:09:02.510Z,17.30
2022-09-09T07:11:32.976Z,17.00
2022-09-09T07:14:01.831Z,17.80
2022-09-09T07:16:32.276Z,18.70
2022-09-09T07:19:01.990Z,19.00
2022-09-09T07:21:31.824Z,18.90
2022-09-09T07:24:01.659Z,18.80
2022-09-09T07:26:31.802Z,18.70
2022-09-09T07:28:59.819Z,18.60
2022-09-09T07:31:31.735Z,19.10
2022-09-09T07:34:01.478Z,19.70
2022-09-09T07:36:33.417Z,20.60
2022-09-09T07:39:06.100Z,20.90
2022-09-09T07:41:37.158Z,20.60
2022-09-09T07:44:09.352Z,20.80
2022-09-09T07:46:41.055Z,21.10
2022-09-09T07:49:09.527Z,21.40
2022-09-09T07:51:39.959Z,21.10
2022-09-09T07:54:12.111Z,21.20
2022-09-09T07:56:41.520Z,21.60
2022-09-09T07:59:11.744Z,21.60
2022-09-09T08:01:42.524Z,22.40
2022-09-09T08:04:15.959Z,22.00
2022-09-09T08:06:45.759Z,21.30
2022-09-09T08:09:16.667Z,20.80
2022-09-09T08:11:44.967Z,21.90
2022-09-09T08:14:14.348Z,21.70
2022-09-09T08:16:44.452Z,21.50
2022-09-09T08:19:12.820Z,21.70
2022-09-09T08:21:42.329Z,22.00
2022-09-09T08:24:12.530Z,21.60
2022-09-09T08:26:43.553Z,21.10
2022-09-09T08:29:14.223Z,21.00
2022-09-09T08:31:44.075Z,21.10
2022-09-09T08:34:12.062Z,21.30
2022-09-09T08:36:43.374Z,21.70
2022-09-09T08:39:12.934Z,21.80
2022-09-09T08:42:16.841Z,21.70
2022-09-09T08:44:56.119Z,21.80
2022-09-09T08:47:34.105Z,22.10
2022-09-09T08:50:18.501Z,22.20
2022-09-09T08:52:55.174Z,22.30
2022-09-09T08:55:34.307Z,22.30
2022-09-09T08:58:11.599Z,22.20
2022-09-09T09:01:01.905Z,22.00
2022-09-09T09:03:40.426Z,21.80
2022-09-09T09:06:21.061Z,22.00
2022-09-09T09:08:55.154Z,22.10
2022-09-09T09:11:23.462Z,22.00
2022-09-09T09:13:58.651Z,22.10
2022-09-09T09:16:33.415Z,22.30
2022-09-09T09:19:02.605Z,21.90
2022-09-09T09:21:39.028Z,22.20
2022-09-09T09:24:21.016Z,23.10
2022-09-09T09:26:50.580Z,23.00
2022-09-09T09:29:22.846Z,23.10
2022-09-09T09:31:55.664Z,22.90
2022-09-09T09:34:24.372Z,22.90
2022-09-09T09:36:56.314Z,23.10
2022-09-09T09:42:18.801Z,23.10
2022-09-09T09:44:51.034Z,23.30
2022-09-09T09:47:21.523Z,23.20
2022-09-09T09:49:56.287Z,23.10
2022-09-09T09:52:25.993Z,23.60
2022-09-09T09:54:55.490Z,23.90
2022-09-09T09:57:30.126Z,24.10
2022-09-09T10:00:14.923Z,23.80
2022-09-09T10:02:45.362Z,24.40
2022-09-09T10:05:17.868Z,24.50
2022-09-09T10:07:47.175Z,24.10
2022-09-09T10:10:22.628Z,24.50
2022-09-09T10:13:02.299Z,24.80
2022-09-09T10:15:43.580Z,24.80
2022-09-09T10:18:24.871Z,24.80
2022-09-09T10:21:03.797Z,24.70
2022-09-09T10:23:47.378Z,24.60
2022-09-09T10:26:31.045Z,24.50
2022-09-09T10:29:27.433Z,24.40
2022-09-09T10:32:08.483Z,24.80
2022-09-09T10:34:55.613Z,25.30
2022-09-09T10:37:38.514Z,25.90
2022-09-09T10:40:27.203Z,25.50
2022-09-09T10:43:00.977Z,24.80
2022-09-09T10:45:35.733Z,25.40
2022-09-09T10:48:32.382Z,25.50
2022-09-09T10:51:13.574Z,24.90
2022-09-09T10:53:50.959Z,25.00
2022-09-09T10:56:22.153Z,25.80
2022-09-09T10:58:54.757Z,25.90
2022-09-09T11:01:26.930Z,25.30
2022-09-09T11:04:03.350Z,23.70
2022-09-09T11:06:37.476Z,22.80
2022-09-09T11:09:08.158Z,23.50
2022-09-09T11:11:41.372Z,23.80
2022-09-09T11:14:17.294Z,24.50
2022-09-09T11:16:52.668Z,24.70
2022-09-09T11:19:29.909Z,24.30
2022-09-09T11:22:01.579Z,24.70
2022-09-09T11:24:35.159Z,25.10
2022-09-09T11:27:10.668Z,24.70
2022-09-09T11:29:59.317Z,24.30
2022-09-09T11:32:48.429Z,24.60
2022-09-09T11:35:33.688Z,24.20
2022-09-09T11:38:19.038Z,24.70
2022-09-09T11:40:47.820Z,24.80
2022-09-09T11:43:20.236Z,24.70
2022-09-09T11:46:00.213Z,24.60
2022-09-09T11:48:34.615Z,24.60
2022-09-09T11:51:11.104Z,24.30
2022-09-09T11:53:51.391Z,24.20
2022-09-09T11:56:31.880Z,24.00
2022-09-09T11:59:03.904Z,24.10
2022-09-09T12:01:36.969Z,24.20
2022-09-09T12:04:30.959Z,24.20
2022-09-09T12:07:05.913Z,23.80
2022-09-09T12:09:45.805Z,23.40
2022-09-09T12:12:36.258Z,23.20
2022-09-09T12:15:29.003Z,23.10
2022-09-09T12:18:03.264Z,23.20
2022-09-09T12:20:36.008Z,23.70
2022-09-09T12:23:28.165Z,23.90
2022-09-09T12:26:06.053Z,23.60
2022-09-09T12:28:46.874Z,23.70
2022-09-09T12:31:20.527Z,23.60
2022-09-09T12:33:49.161Z,23.60
2022-09-09T12:36:21.389Z,22.80
2022-09-09T12:38:52.542Z,22.60
2022-09-09T12:41:25.843Z,22.60
2022-09-09T12:44:05.238Z,22.80
2022-09-09T12:46:38.697Z,22.70
2022-09-09T12:49:07.514Z,22.50
2022-09-09T12:51:36.319Z,22.60
2022-09-09T12:54:06.875Z,22.60
2022-09-09T12:56:36.335Z,22.70
2022-09-09T12:59:04.359Z,22.90
2022-09-09T13:01:34.690Z,23.00
2022-09-09T13:04:03.167Z,23.10
2022-09-09T13:06:33.392Z,23.10
2022-09-09T13:09:03.735Z,23.10
2022-09-09T13:11:39.277Z,23.10
2022-09-09T13:14:09.549Z,23.10
2022-09-09T13:16:42.951Z,23.00
2022-09-09T13:19:16.866Z,23.10
2022-09-09T13:21:45.649Z,23.20
2022-09-09T13:24:30.423Z,23.30
2022-09-09T13:27:03.150Z,23.20
2022-09-09T13:29:31.872Z,23.20
2022-09-09T13:32:07.447Z,23.10
2022-09-09T13:34:37.605Z,22.90
2022-09-09T13:37:08.114Z,22.80
2022-09-09T13:39:38.428Z,23.00
2022-09-09T13:42:23.833Z,22.90
2022-09-09T13:44:51.915Z,22.80
2022-09-09T13:47:22.005Z,22.40
2022-09-09T13:49:50.190Z,22.70
2022-09-09T13:52:19.906Z,22.80
2022-09-09T13:54:50.713Z,22.60
2022-09-09T13:57:21.805Z,22.40
2022-09-09T14:00:06.590Z,22.50
2022-09-09T14:02:35.444Z,22.60
2022-09-09T14:05:03.502Z,22.60
2022-09-09T14:07:31.670Z,22.70
2022-09-09T14:10:01.545Z,22.80
2022-09-09T14:12:30.955Z,22.70
2022-09-09T14:15:00.760Z,22.60
2022-09-09T14:17:32.626Z,22.70
2022-09-09T14:20:01.594Z,22.80
2022-09-09T14:22:29.596Z,23.00
2022-09-09T14:24:58.621Z,22.80
2022-09-09T14:27:27.543Z,22.90
2022-09-09T14:29:57.332Z,22.90
2022-09-09T14:32:25.355Z,23.00
2022-09-09T14:34:53.622Z,23.00
2022-09-09T14:37:21.782Z,23.00
2022-09-09T14:39:51.692Z,23.20
2022-09-09T14:42:19.787Z,23.10
2022-09-09T14:44:48.815Z,23.20
2022-09-09T14:47:18.281Z,23.20
2022-09-09T14:49:47.415Z,22.60
2022-09-09T14:52:15.547Z,22.60
2022-09-09T14:54:43.521Z,22.90
2022-09-09T14:57:11.550Z,23.10
2022-09-09T14:59:39.595Z,23.00
2022-09-09T15:02:07.882Z,22.90
2022-09-09T15:04:38.777Z,22.70
2022-09-09T15:07:06.983Z,22.70
2022-09-09T15:09:35.239Z,22.70
2022-09-09T15:12:03.959Z,22.90
2022-09-09T15:14:32.413Z,22.70
2022-09-09T15:17:00.470Z,22.50
2022-09-09T15:19:28.727Z,22.60
2022-09-09T15:21:58.247Z,22.40
2022-09-09T15:24:26.995Z,22.50
2022-09-09T15:26:55.166Z,22.40
2022-09-09T15:29:23.526Z,22.30
2022-09-09T15:31:51.593Z,22.00
2022-09-09T15:34:20.304Z,21.40
2022-09-09T15:36:49.038Z,21.70
2022-09-09T15:39:20.020Z,21.50
2022-09-09T15:41:49.490Z,20.90
2022-09-09T15:44:17.982Z,20.80
2022-09-09T15:46:47.143Z,20.80
2022-09-09T15:49:18.633Z,20.90
2022-09-09T15:51:47.825Z,20.70
2022-09-09T15:54:19.546Z,20.90
2022-09-09T15:56:49.783Z,21.20
2022-09-09T15:59:18.574Z,21.30
2022-09-09T16:01:46.730Z,21.30
2022-09-09T16:04:16.962Z,21.30
2022-09-09T16:06:45.433Z,21.20
2022-09-09T16:09:13.595Z,20.90
2022-09-09T16:11:43.010Z,21.10
2022-09-09T16:14:12.103Z,21.10
2022-09-09T16:16:40.277Z,20.90
2022-09-09T16:19:10.626Z,20.80
2022-09-09T16:21:40.940Z,20.80
2022-09-09T16:24:11.279Z,20.60
2022-09-09T16:26:41.203Z,20.70
2022-09-09T16:29:10.893Z,20.30
2022-09-09T16:31:40.416Z,20.30
2022-09-09T16:34:08.511Z,20.20
2022-09-09T16:36:40.237Z,20.20
2022-09-09T16:39:11.071Z,20.20
2022-09-09T16:41:40.532Z,20.10
2022-09-09T16:44:11.447Z,20.20
2022-09-09T16:46:40.961Z,20.40
2022-09-09T16:49:11.189Z,20.60
2022-09-09T16:51:41.468Z,20.50
2022-09-09T16:54:10.728Z,20.40
2022-09-09T16:56:42.237Z,20.10
2022-09-09T16:59:14.226Z,19.80
2022-09-09T17:01:44.259Z,19.70
2022-09-09T17:04:14.753Z,19.60
2022-09-09T17:06:42.817Z,19.60
2022-09-09T17:09:12.505Z,19.70
2022-09-09T17:11:41.378Z,19.70
2022-09-09T17:14:15.125Z,19.60
2022-09-09T17:16:43.135Z,19.40
2022-09-09T17:19:11.864Z,19.30
2022-09-09T17:22:00.149Z,19.30
2022-09-09T17:24:30.515Z,19.20
2022-09-09T17:26:59.003Z,19.20
2022-09-09T17:29:28.453Z,19.30
2022-09-09T17:31:57.583Z,19.20
2022-09-09T17:34:26.327Z,19.10
2022-09-09T17:36:54.360Z,19.10
2022-09-09T17:39:22.653Z,19.30
2022-09-09T17:41:50.757Z,19.30
2022-09-09T17:44:20.439Z,19.30
2022-09-09T17:46:50.452Z,19.30
2022-09-09T17:49:20.134Z,19.30
2022-09-09T17:51:48.599Z,19.20
2022-09-09T17:54:18.485Z,19.20
2022-09-09T17:56:47.962Z,19.10
2022-09-09T17:59:17.975Z,19.10
2022-09-09T18:01:47.774Z,18.90
2022-09-09T18:04:18.911Z,18.70
2022-09-09T18:06:48.801Z,18.80
2022-09-09T18:09:18.436Z,19.00
2022-09-09T18:11:48.338Z,19.10
2022-09-09T18:14:18.745Z,19.10
2022-09-09T18:16:47.530Z,19.10
2022-09-09T18:19:20.309Z,18.90
2022-09-09T18:21:49.233Z,19.00
2022-09-09T18:24:18.765Z,18.90
2022-09-09T18:26:48.205Z,18.90
2022-09-09T18:29:18.166Z,18.80
2022-09-09T18:31:47.674Z,18.70
2022-09-09T18:34:19.114Z,18.40
2022-09-09T18:36:49.362Z,18.20
2022-09-09T18:39:19.424Z,18.10
2022-09-09T18:41:49.181Z,18.10
2022-09-09T18:44:21.731Z,17.80
2022-09-09T18:46:52.019Z,17.70
2022-09-09T18:49:22.476Z,17.90
2022-09-09T18:51:50.690Z,17.80
2022-09-09T18:54:20.986Z,17.70
2022-09-09T18:56:49.666Z,17.80
2022-09-09T18:59:20.733Z,17.80
2022-09-09T19:01:50.535Z,17.70
2022-09-09T19:04:21.890Z,17.70
2022-09-09T19:06:52.362Z,17.70
2022-09-09T19:09:20.441Z,17.70
2022-09-09T19:11:48.531Z,17.70
2022-09-09T19:14:19.126Z,17.60
2022-09-09T19:16:47.770Z,17.60
2022-09-09T19:19:18.213Z,17.60
2022-09-09T19:21:48.249Z,17.60
2022-09-09T19:24:19.134Z,17.60
2022-09-09T19:26:49.461Z,17.70
2022-09-09T19:29:19.671Z,17.90
2022-09-09T19:32:18.701Z,17.70
2022-09-09T19:34:36.716Z,17.70
2022-09-09T19:37:06.498Z,17.60
2022-09-09T19:39:35.084Z,17.50
2022-09-09T19:42:03.217Z,17.40
2022-09-09T19:44:31.296Z,17.40
2022-09-09T19:47:00.864Z,17.40
2022-09-09T19:49:29.313Z,17.30
2022-09-09T19:51:57.683Z,17.30
2022-09-09T19:54:27.152Z,17.20
2022-09-09T19:56:55.635Z,17.10
2022-09-09T19:59:23.742Z,17.10
2022-09-09T20:01:52.281Z,17.10
2022-09-09T20:04:20.707Z,17.00
2022-09-09T20:06:48.702Z,17.00
2022-09-09T20:09:19.705Z,17.00
2022-09-09T20:11:50.273Z,17.10
2022-09-09T20:14:18.567Z,17.10
2022-09-09T20:16:47.462Z,16.80
2022-09-09T20:19:17.310Z,16.80
2022-09-09T20:21:48.935Z,16.90
2022-09-09T20:24:18.678Z,16.90
2022-09-09T20:26:48.939Z,16.70
2022-09-09T20:29:19.082Z,16.70
2022-09-09T20:31:48.430Z,16.60
2022-09-09T20:34:18.787Z,16.60
2022-09-09T20:36:48.781Z,16.60
2022-09-09T20:39:20.090Z,16.60
2022-09-09T20:41:50.322Z,16.60
2022-09-09T20:44:20.121Z,16.60
2022-09-09T20:46:50.021Z,16.60
2022-09-09T20:49:19.919Z,16.50
2022-09-09T20:51:49.835Z,16.30
2022-09-09T20:54:19.982Z,16.30
2022-09-09T20:56:50.579Z,16.50
2022-09-09T20:59:20.826Z,16.50
2022-09-09T21:01:50.102Z,16.50
2022-09-09T21:04:19.729Z,16.50
2022-09-09T21:06:49.989Z,16.50
2022-09-09T21:09:19.421Z,16.50
2022-09-09T21:11:49.081Z,16.50
2022-09-09T21:14:17.077Z,16.60
2022-09-09T21:16:46.162Z,16.60
2022-09-09T21:19:14.165Z,16.60
2022-09-09T21:21:42.218Z,16.70
2022-09-09T21:24:10.695Z,16.70
2022-09-09T21:26:39.439Z,16.70
2022-09-09T21:29:09.028Z,16.70
2022-09-09T21:31:37.404Z,16.70
2022-09-09T21:34:05.831Z,16.70
2022-09-09T21:36:33.891Z,16.70
2022-09-09T21:39:01.920Z,16.80
2022-09-09T21:41:30.322Z,16.60
2022-09-09T21:43:58.347Z,16.60
2022-09-09T21:46:28.329Z,16.60
2022-09-09T21:48:57.449Z,16.70
2022-09-09T21:51:26.236Z,16.70
2022-09-09T21:53:56.722Z,16.70
2022-09-09T21:56:26.882Z,16.50
2022-09-09T21:58:59.358Z,16.70
2022-09-09T22:01:28.793Z,16.70
2022-09-09T22:03:57.260Z,16.70
2022-09-09T22:06:25.248Z,16.70
2022-09-09T22:08:59.042Z,16.60
2022-09-09T22:11:28.521Z,16.60
2022-09-09T22:13:56.553Z,16.60
2022-09-09T22:16:25.584Z,16.50
2022-09-09T22:18:57.592Z,16.50
2022-09-09T22:21:27.471Z,16.50
2022-09-09T22:23:56.867Z,16.50
2022-09-09T22:26:26.644Z,16.60
2022-09-09T22:28:54.722Z,16.60
2022-09-09T22:31:23.701Z,16.50
2022-09-09T22:33:52.457Z,16.60
2022-09-09T22:36:22.408Z,16.60
2022-09-09T22:38:51.808Z,16.60
2022-09-09T22:41:20.656Z,16.50
2022-09-09T22:43:48.794Z,16.60
2022-09-09T22:46:17.600Z,16.60
2022-09-09T22:48:45.768Z,16.60
2022-09-09T22:51:15.766Z,16.50
2022-09-09T22:53:46.899Z,16.30
2022-09-09T22:56:17.519Z,16.30
2022-09-09T22:58:46.774Z,16.20
2022-09-09T23:01:17.585Z,16.00
2022-09-09T23:03:47.107Z,16.10
2022-09-09T23:06:18.311Z,16.20
2022-09-09T23:08:48.945Z,16.20
2022-09-09T23:11:17.407Z,16.30
2022-09-09T23:13:52.045Z,16.30
2022-09-09T23:16:22.179Z,16.10
2022-09-09T23:18:52.568Z,16.00
2022-09-09T23:21:22.419Z,16.00
2022-09-09T23:23:54.354Z,15.90
2022-09-09T23:26:23.230Z,15.90
2022-09-09T23:28:53.293Z,16.00
2022-09-09T23:31:24.917Z,15.90
2022-09-09T23:33:54.389Z,15.90
2022-09-09T23:36:25.744Z,15.90
2022-09-09T23:38:56.172Z,15.80
2022-09-09T23:41:24.585Z,15.90
2022-09-09T23:43:53.839Z,15.80
2022-09-09T23:46:24.391Z,15.80
2022-09-09T23:48:52.458Z,15.80
2022-09-09T23:51:23.866Z,15.70
2022-09-09T23:53:56.983Z,15.70
2022-09-09T23:56:27.270Z,15.70
2022-09-09T23:58:55.799Z,15.60
